Hovedside
METAR-TAF:

METAR-TAF

Lufthavner :

Cairns, Australia

breddegrad: 16-53S, lengdegrad: 145-45E, høyde over havet: 3 m

Gjeldene værobservasjon

Denne rapporten ble laget for 28 minutter siden, klokken 01:00 UTC
Vind 10 kt fra Øst, skiftende mellom Nordøst og Øst-sørøst
Temperatur 31°C
Luftfuktighet 46%
Trykk 1013 hPa
Sikt 10 km eller mer
Få skyer i en høyde av 4200 ft

METAR: YBCS 170100Z 09010KT 050V120 9999 FEW042 31/18 Q1013 NOSIG

Tid: 11:28 (01:28 UTC)

Varsel

Denne rapporten ble laget for 2 timer og 22 minutter siden, klokken 23:06 UTC
Varsel gyldig fra 17. klokken 00 UTC til 17. klokken 24 UTC
Vind 14 kt fra Øst
Sikt 10 km eller mer
Få skyer i en høyde av 3500 ft
Fra 17. klokken 0800 UTC
Vind 8 kt fra Sørøst
Sikt 10 km eller mer
Få skyer i en høyde av 2500 ft

TAF: YBCS 162306Z 1700/1724 10014KT 9999 FEW035 FM170800 14008KT 9999 FEW025

Værobservasjoner og værvarsel for over 4000 flyplasser (METAR- og TAF-rapporter).

Tilgjengelige stasjoner er representert av de røde og gule prikkene på kartet.

Hold musepekeren over prikken for å se navnet på stasjonen.

Klikk så for å se værobservasjoner og -varsler.

For å forandre kartet kan du klikke på den grønne knappen med svart kryss for å zoome inn, på den grønne knappen med strek for å zoome ut, eller på de grønne pilene for å se tilstøtende kart.


METAR-TAF: